Time;durP1;ratioP1;P1;durP2;ratioP2;P2;SDS_P1;SDS_P2;PMS_P1;PMS_P2;Temp;Humidity;BMP_temperature;BMP_pressure;BME280_temperature;BME280_humidity;BME280_pressure;Samples;Min_cycle;Max_cycle;Signal;HPM_P1;HPM_P2
2022/06/24 00:02:08;;;;;;;3.65;2.83;;;;;;;17.32;100.00;98895.34;4416062;32;20505;-70
2022/06/24 00:04:55;;;;;;;5.97;2.55;;;;;;;17.50;100.00;98933.69;4417205;32;20056;-70
2022/06/24 00:07:21;;;;;;;3.53;3.03;;;;;;;17.28;100.00;98883.44;4415336;32;20367;-70
2022/06/24 00:09:48;;;;;;;4.05;2.95;;;;;;;17.42;100.00;98927.84;4416654;32;20412;-69
2022/06/24 00:12:16;;;;;;;5.47;2.92;;;;;;;17.28;100.00;98902.50;4416880;32;20071;-69
2022/06/24 00:14:47;;;;;;;5.07;3.12;;;;;;;17.26;100.00;98885.63;4417322;32;20053;-70
2022/06/24 00:17:14;;;;;;;7.93;3.92;;;;;;;17.48;100.00;98930.47;4420912;32;20394;-70
2022/06/24 00:19:58;;;;;;;3.17;2.62;;;;;;;17.41;100.00;98928.13;4428210;32;20038;-72
2022/06/24 00:22:26;;;;;;;6.22;3.50;;;;;;;17.43;100.00;98929.44;4417026;32;20181;-69
2022/06/24 00:25:24;;;;;;;7.05;3.53;;;;;;;17.37;100.00;98940.72;4415546;32;20081;-70
2022/06/24 00:27:59;;;;;;;3.72;3.08;;;;;;;17.46;100.00;98933.50;4418041;32;20049;-70
2022/06/24 00:30:24;;;;;;;4.82;2.42;;;;;;;17.43;100.00;98936.81;4431464;32;20049;-70
2022/06/24 00:32:51;;;;;;;8.63;3.08;;;;;;;17.33;100.00;98942.44;4430730;32;20050;-70
2022/06/24 00:35:18;;;;;;;3.97;3.17;;;;;;;17.33;100.00;98943.22;4430181;32;20087;-70
2022/06/24 00:37:46;;;;;;;7.60;3.00;;;;;;;17.36;100.00;98956.25;4417999;32;20776;-70
2022/06/24 00:40:12;;;;;;;3.70;3.42;;;;;;;17.29;100.00;98939.47;4426217;32;20034;-70
2022/06/24 00:42:40;;;;;;;4.78;3.35;;;;;;;17.24;100.00;98936.84;4422632;32;20096;-69
2022/06/24 00:45:16;;;;;;;6.25;3.08;;;;;;;17.26;100.00;98934.63;4428285;32;20111;-70
2022/06/24 00:47:43;;;;;;;3.55;2.60;;;;;;;17.28;100.00;98943.31;4416441;32;20038;-69
2022/06/24 00:50:22;;;;;;;3.37;2.55;;;;;;;17.19;100.00;98939.63;4426484;32;20184;-69
2022/06/24 00:52:51;;;;;;;5.15;3.50;;;;;;;17.00;100.00;98898.84;4429983;32;20376;-72
2022/06/24 00:55:19;;;;;;;4.82;3.30;;;;;;;17.22;100.00;98939.84;4420647;32;20054;-71
2022/06/24 00:57:45;;;;;;;7.87;3.17;;;;;;;17.04;100.00;98884.38;4415616;32;20037;-70
2022/06/24 01:02:46;;;;;;;5.65;2.80;;;;;;;17.42;100.00;98943.34;4415070;32;20105;-70
2022/06/24 01:05:12;;;;;;;5.62;2.95;;;;;;;17.42;100.00;98943.34;4416374;32;20419;-70
2022/06/24 01:07:39;;;;;;;3.42;2.92;;;;;;;17.30;100.00;98934.84;4422633;32;20085;-70
2022/06/24 01:10:07;;;;;;;11.07;3.22;;;;;;;17.38;100.00;98936.91;4414492;32;20393;-71
2022/06/24 01:12:34;;;;;;;4.15;3.05;;;;;;;17.43;100.00;98937.59;4413354;32;20065;-70
2022/06/24 01:15:04;;;;;;;3.72;3.15;;;;;;;17.41;100.00;98931.66;4416677;32;20310;-70
2022/06/24 01:17:30;;;;;;;3.60;3.10;;;;;;;17.42;100.00;98933.28;4399856;32;20416;-69
2022/06/24 01:19:56;;;;;;;9.52;3.00;;;;;;;17.42;100.00;98940.63;4415749;32;20087;-69
2022/06/24 01:22:26;;;;;;;5.07;3.45;;;;;;;17.50;100.00;98939.13;4415384;32;20384;-71
2022/06/24 01:24:53;;;;;;;3.42;3.12;;;;;;;17.49;100.00;98938.34;4414731;32;20049;-69
2022/06/24 01:27:19;;;;;;;5.18;3.10;;;;;;;17.35;100.00;98930.12;4415754;32;20087;-68
2022/06/24 01:29:46;;;;;;;5.22;2.83;;;;;;;17.12;100.00;98901.09;4414204;32;20038;-70
2022/06/24 01:32:12;;;;;;;5.82;3.03;;;;;;;17.31;100.00;98931.84;4392902;32;20074;-69
2022/06/24 01:34:38;;;;;;;3.60;3.03;;;;;;;17.05;100.00;98891.41;4410038;32;20419;-70
2022/06/24 01:37:05;;;;;;;6.40;3.03;;;;;;;17.41;100.00;98930.84;4416570;32;20074;-69
2022/06/24 01:39:31;;;;;;;3.62;3.33;;;;;;;17.33;100.00;98924.19;4419700;32;20127;-69
2022/06/24 01:41:57;;;;;;;5.82;3.12;;;;;;;17.46;100.00;98921.81;4419442;32;20080;-68
2022/06/24 01:44:23;;;;;;;6.72;3.35;;;;;;;17.25;100.00;98922.12;4420542;32;20448;-69
2022/06/24 01:46:50;;;;;;;12.73;3.50;;;;;;;17.34;100.00;98923.09;4421148;32;20491;-70
2022/06/24 01:49:16;;;;;;;13.52;3.35;;;;;;;17.04;100.00;98886.25;4417070;32;20465;-69
2022/06/24 01:51:46;;;;;;;3.90;3.37;;;;;;;17.04;100.00;98887.09;4419887;32;20050;-69
2022/06/24 01:54:11;;;;;;;3.37;3.00;;;;;;;17.11;100.00;98894.06;4420584;32;20030;-70
2022/06/24 01:56:38;;;;;;;5.80;3.40;;;;;;;17.27;100.00;98925.34;4421345;32;20096;-70
2022/06/24 01:59:04;;;;;;;5.25;3.78;;;;;;;17.24;100.00;98923.22;4428712;32;20119;-71
2022/06/24 02:01:36;;;;;;;6.62;3.97;;;;;;;17.19;100.00;98917.88;4421033;32;20050;-70
2022/06/24 02:04:02;;;;;;;4.37;3.60;;;;;;;17.19;100.00;98923.31;4430074;32;20065;-69
2022/06/24 02:06:28;;;;;;;5.37;4.10;;;;;;;17.16;100.00;98923.91;4434577;32;20050;-69
2022/06/24 02:08:56;;;;;;;7.95;4.35;;;;;;;16.83;100.00;98888.44;4429589;32;20371;-70
2022/06/24 02:13:57;;;;;;;6.28;4.20;;;;;;;17.12;100.00;98922.88;4420634;32;20419;-70
2022/06/24 02:16:24;;;;;;;7.70;4.78;;;;;;;16.86;100.00;98883.28;4416803;32;20120;-70
2022/06/24 02:18:50;;;;;;;8.85;5.05;;;;;;;17.12;100.00;98918.25;4405650;32;20067;-69
2022/06/24 02:21:16;;;;;;;6.53;4.43;;;;;;;17.13;100.00;98913.63;4421482;32;20033;-70
2022/06/24 02:23:42;;;;;;;12.10;5.07;;;;;;;17.00;100.00;98915.16;4420534;32;20185;-70
2022/06/24 02:26:14;;;;;;;6.05;4.30;;;;;;;16.85;100.00;98886.28;4434971;32;20061;-70
2022/06/24 02:28:40;;;;;;;7.32;4.53;;;;;;;17.06;100.00;98925.66;4420431;32;20398;-70
2022/06/24 02:31:06;;;;;;;9.00;4.32;;;;;;;16.92;100.00;98903.03;4420726;32;20081;-70
2022/06/24 02:33:33;;;;;;;8.43;4.53;;;;;;;17.06;100.00;98922.16;4420628;32;20035;-70
2022/06/24 02:35:59;;;;;;;7.47;4.43;;;;;;;16.82;100.00;98886.84;4418083;32;20789;-71
2022/06/24 02:38:25;;;;;;;7.05;4.05;;;;;;;17.03;100.00;98926.25;4420740;32;20432;-71
2022/06/24 02:40:54;;;;;;;12.57;4.57;;;;;;;16.95;100.00;98905.16;4406688;32;20119;-71
2022/06/24 02:43:27;;;;;;;8.25;5.00;;;;;;;16.89;100.00;98925.38;4418962;32;20038;-71
2022/06/24 02:45:58;;;;;;;6.43;4.75;;;;;;;16.95;100.00;98917.97;4420089;32;20085;-70
2022/06/24 02:48:25;;;;;;;7.60;4.00;;;;;;;16.99;100.00;98925.25;4420906;32;20497;-70
2022/06/24 02:50:53;;;;;;;8.13;4.53;;;;;;;16.73;100.00;98878.53;4429337;32;20073;-70
2022/06/24 02:53:20;;;;;;;8.20;3.80;;;;;;;16.71;100.00;98881.56;4428899;32;20344;-70
2022/06/24 02:55:49;;;;;;;5.30;3.67;;;;;;;16.91;100.00;98928.59;4416862;32;20039;-71
2022/06/24 02:58:15;;;;;;;9.50;4.57;;;;;;;16.69;100.00;98882.97;4417823;32;20049;-70
2022/06/24 03:00:42;;;;;;;10.55;4.65;;;;;;;16.83;100.00;98926.53;4418034;32;20062;-70
2022/06/24 03:03:09;;;;;;;5.05;4.07;;;;;;;16.89;100.00;98922.66;4417951;32;20064;-70
2022/06/24 03:05:35;;;;;;;4.43;3.95;;;;;;;16.97;100.00;98927.44;4417870;32;20523;-73
2022/06/24 03:08:02;;;;;;;7.20;4.37;;;;;;;16.99;100.00;98927.13;4416792;32;20042;-70
2022/06/24 03:10:28;;;;;;;7.12;4.28;;;;;;;16.63;100.00;98889.56;4418565;32;20186;-69
2022/06/24 03:12:54;;;;;;;5.37;3.50;;;;;;;16.90;100.00;98927.00;4424069;32;20404;-69
2022/06/24 03:15:20;;;;;;;6.82;4.50;;;;;;;16.66;100.00;98895.22;4422837;32;20094;-69
2022/06/24 03:17:46;;;;;;;17.73;3.90;;;;;;;16.65;100.00;98888.16;4430570;32;20353;-70
2022/06/24 03:20:12;;;;;;;4.15;3.67;;;;;;;16.67;100.00;98880.53;4414819;32;20050;-70
2022/06/24 03:22:38;;;;;;;7.80;4.10;;;;;;;16.84;100.00;98920.78;4417694;32;20065;-70
2022/06/24 03:25:05;;;;;;;6.28;3.62;;;;;;;16.92;100.00;98934.87;4425371;32;20069;-70
2022/06/24 03:27:31;;;;;;;9.45;4.87;;;;;;;16.96;100.00;98922.28;4432542;32;20033;-70
2022/06/24 03:29:58;;;;;;;7.37;3.60;;;;;;;17.09;100.00;98937.88;4431328;32;20204;-70
2022/06/24 03:32:24;;;;;;;8.57;3.97;;;;;;;17.04;100.00;98925.16;4432343;32;20053;-69
2022/06/24 03:34:50;;;;;;;9.27;3.60;;;;;;;17.07;100.00;98934.63;4426797;32;20413;-71
2022/06/24 03:37:16;;;;;;;8.88;3.58;;;;;;;17.09;100.00;98934.34;4416917;32;20038;-70
2022/06/24 03:39:42;;;;;;;15.95;4.25;;;;;;;17.04;100.00;98936.03;4417135;32;20065;-71
2022/06/24 03:42:07;;;;;;;9.05;4.00;;;;;;;17.08;100.00;98943.63;4423702;32;20092;-70
2022/06/24 03:44:33;;;;;;;7.12;3.12;;;;;;;17.06;100.00;98931.09;4421738;32;20042;-72
2022/06/24 03:47:01;;;;;;;5.18;3.30;;;;;;;17.16;100.00;98941.03;4431423;32;20038;-70
2022/06/24 03:49:27;;;;;;;4.43;3.62;;;;;;;16.93;100.00;98920.97;4432889;32;20361;-70
2022/06/24 03:51:53;;;;;;;6.22;3.17;;;;;;;17.21;100.00;98938.22;4432695;32;20056;-70
2022/06/24 03:54:19;;;;;;;4.05;3.67;;;;;;;17.03;100.00;98909.94;4432600;32;20042;-70
2022/06/24 03:56:44;;;;;;;6.55;3.75;;;;;;;17.28;100.00;98943.31;4430130;32;20064;-71
2022/06/24 03:59:10;;;;;;;10.27;3.72;;;;;;;17.25;100.00;98939.25;4428270;32;20062;-70
2022/06/24 04:01:36;;;;;;;4.82;3.80;;;;;;;17.01;100.00;98893.13;4419480;32;20058;-69
2022/06/24 04:04:03;;;;;;;7.68;3.72;;;;;;;17.29;100.00;98950.34;4418849;32;20163;-69
2022/06/24 04:06:28;;;;;;;4.05;3.30;;;;;;;17.38;100.00;98936.91;4418631;32;20038;-70
2022/06/24 04:08:55;;;;;;;5.45;3.47;;;;;;;17.43;100.00;98934.87;4432060;32;20078;-69
2022/06/24 04:11:21;;;;;;;10.73;4.05;;;;;;;17.49;100.00;98932.09;4429748;32;20126;-71
2022/06/24 04:13:47;;;;;;;3.10;2.78;;;;;;;17.46;100.00;98932.69;4431065;32;20281;-69
2022/06/24 04:16:14;;;;;;;6.50;3.42;;;;;;;17.61;100.00;98940.59;4428590;32;20046;-69
2022/06/24 04:18:40;;;;;;;9.77;3.35;;;;;;;17.61;100.00;98946.03;4416868;32;20470;-69
2022/06/24 04:21:14;;;;;;;4.10;3.17;;;;;;;17.62;100.00;98931.31;4416695;32;20085;-70
2022/06/24 04:23:41;;;;;;;5.07;3.62;;;;;;;17.77;100.00;98931.06;4415825;32;20489;-70
2022/06/24 04:26:07;;;;;;;9.88;3.58;;;;;;;17.78;100.00;98935.38;4416152;32;20081;-70
2022/06/24 04:28:34;;;;;;;8.65;3.17;;;;;;;17.78;100.00;98932.66;4425441;32;20451;-70
2022/06/24 04:31:00;;;;;;;4.22;3.40;;;;;;;17.78;100.00;98926.41;4410285;32;20410;-69
2022/06/24 04:33:26;;;;;;;3.10;2.85;;;;;;;17.85;100.00;98939.63;4428320;32;20034;-70
2022/06/24 04:35:52;;;;;;;5.85;2.65;;;;;;;17.64;100.00;98901.88;4415774;32;20034;-69
2022/06/24 04:38:18;;;;;;;4.65;2.47;;;;;;;17.81;100.00;98933.19;4431948;32;20085;-70
2022/06/24 04:40:44;;;;;;;4.35;2.92;;;;;;;17.86;100.00;98935.81;4400964;32;20091;-69
2022/06/24 04:43:10;;;;;;;5.53;2.80;;;;;;;17.84;100.00;98947.00;4416517;32;20483;-69
2022/06/24 04:45:37;;;;;;;5.45;2.78;;;;;;;17.93;100.00;98939.78;4415637;32;20053;-69
2022/06/24 04:48:03;;;;;;;4.45;3.05;;;;;;;18.04;100.00;98947.75;4414051;32;20493;-70
2022/06/24 04:50:29;;;;;;;6.62;3.03;;;;;;;18.05;100.00;98939.28;4409993;32;20382;-68
2022/06/24 04:52:55;;;;;;;3.22;2.75;;;;;;;18.10;100.00;98952.81;4418595;32;20060;-70
2022/06/24 04:55:22;;;;;;;5.50;2.83;;;;;;;18.15;100.00;98939.09;4422973;32;20428;-69
2022/06/24 04:57:48;;;;;;;4.30;3.00;;;;;;;18.32;100.00;98948.59;4414221;32;20085;-70
2022/06/24 05:00:15;;;;;;;9.20;3.25;;;;;;;18.40;100.00;98950.59;4418529;32;20091;-70
2022/06/24 05:02:41;;;;;;;10.02;2.80;;;;;;;18.48;100.00;98952.62;4431623;32;20091;-70
2022/06/24 05:05:15;;;;;;;4.18;2.97;;;;;;;18.27;100.00;98916.00;4430323;32;20053;-69
2022/06/24 05:07:41;;;;;;;2.37;2.17;;;;;;;18.64;100.00;98950.38;4416322;32;20042;-69
2022/06/24 05:10:08;;;;;;;12.52;3.40;;;;;;;18.66;100.00;98952.81;4415668;32;20112;-70
2022/06/24 05:12:34;;;;;;;2.45;2.25;;;;;;;18.70;100.00;98948.38;4414541;32;20146;-69
2022/06/24 05:15:01;;;;;;;7.00;2.47;;;;;;;18.58;100.00;98912.63;4416490;32;20395;-69
2022/06/24 05:17:26;;;;;;;5.75;2.50;;;;;;;18.97;100.00;98947.53;4386882;32;20073;-69
2022/06/24 05:19:52;;;;;;;8.27;2.78;;;;;;;18.77;100.00;98910.56;4415426;32;20106;-69
2022/06/24 05:22:19;;;;;;;7.53;2.28;;;;;;;19.09;100.00;98944.25;4414054;32;20043;-71
2022/06/24 05:24:45;;;;;;;9.35;2.53;;;;;;;19.14;100.00;98935.13;4416229;32;20113;-70
2022/06/24 05:27:11;;;;;;;3.33;2.30;;;;;;;19.20;100.00;98933.91;4415716;32;20056;-69
2022/06/24 05:29:37;;;;;;;5.07;2.60;;;;;;;19.08;100.00;98909.88;4428624;32;20081;-69
2022/06/24 05:32:04;;;;;;;3.65;2.15;;;;;;;19.42;100.00;98952.22;4426541;32;20318;-72
2022/06/24 05:34:29;;;;;;;14.48;2.65;;;;;;;19.41;100.00;98924.09;4415108;32;20382;-70
2022/06/24 05:36:55;;;;;;;2.92;2.10;;;;;;;19.62;100.00;98950.09;4414771;32;20050;-70
2022/06/24 05:39:21;;;;;;;8.50;2.37;;;;;;;19.66;100.00;98940.19;4401670;32;20084;-70
2022/06/24 05:41:47;;;;;;;6.45;2.25;;;;;;;19.77;100.00;98952.47;4414886;32;20089;-70
2022/06/24 05:44:13;;;;;;;5.28;2.50;;;;;;;19.84;100.00;98947.38;4420748;32;20352;-69
2022/06/24 05:46:40;;;;;;;4.65;2.33;;;;;;;19.99;100.00;98953.53;4415215;32;20130;-70
2022/06/24 05:49:06;;;;;;;5.35;2.10;;;;;;;19.99;100.00;98942.63;4415497;32;20046;-70
2022/06/24 05:51:35;;;;;;;4.47;2.28;;;;;;;19.95;100.00;98943.25;4415816;32;20057;-70
2022/06/24 05:56:45;;;;;;;3.53;2.03;;;;;;;20.17;100.00;98955.25;4414629;32;20423;-71
2022/06/24 05:59:11;;;;;;;2.70;1.90;;;;;;;20.11;100.00;98923.72;4414785;32;20046;-71
2022/06/24 06:01:37;;;;;;;2.70;2.05;;;;;;;20.24;100.00;98939.19;4415151;32;20078;-71
2022/06/24 06:04:03;;;;;;;2.25;2.05;;;;;;;20.26;100.00;98919.72;4415159;32;20033;-73
2022/06/24 06:06:29;;;;;;;6.37;2.10;;;;;;;20.45;100.00;98938.59;4419503;32;20060;-70
2022/06/24 06:08:57;;;;;;;3.08;2.15;;;;;;;20.64;100.00;98961.03;4427499;32;20093;-69
2022/06/24 06:11:25;;;;;;;2.60;2.30;;;;;;;20.70;100.00;98955.44;4418889;32;20051;-69
2022/06/24 06:13:52;;;;;;;6.10;2.10;;;;;;;20.64;100.00;98922.75;4415001;32;20499;-71
2022/06/24 06:16:18;;;;;;;9.75;2.10;;;;;;;20.71;100.00;98919.56;4414792;32;20038;-73
2022/06/24 06:18:45;;;;;;;11.25;2.35;;;;;;;20.94;100.00;98944.84;4414730;32;20038;-70
2022/06/24 06:21:12;;;;;;;5.93;1.83;;;;;;;20.82;100.00;98920.03;4414661;32;20063;-70
2022/06/24 06:23:40;;;;;;;13.57;4.30;;;;;;;21.09;100.00;98950.97;4414993;32;20085;-69
2022/06/24 06:26:07;;;;;;;1.95;1.80;;;;;;;21.11;100.00;98955.00;4398020;32;20069;-70
2022/06/24 06:28:34;;;;;;;12.02;3.28;;;;;;;21.09;100.00;98956.44;4413096;32;20451;-71
2022/06/24 06:31:00;;;;;;;6.80;2.30;;;;;;;21.19;100.00;98956.16;4418519;32;20105;-70
2022/06/24 06:33:27;;;;;;;3.58;2.35;;;;;;;21.18;100.00;98949.06;4416577;32;20383;-70
2022/06/24 06:36:04;;;;;;;2.28;2.05;;;;;;;21.30;100.00;98951.13;4417362;32;20091;-69
2022/06/24 06:38:31;;;;;;;10.10;2.10;;;;;;;21.19;100.00;98917.81;4416863;32;20042;-71
2022/06/24 06:40:57;;;;;;;4.70;2.47;;;;;;;21.38;100.00;98942.91;4416807;32;20042;-70
2022/06/24 06:43:23;;;;;;;3.25;2.40;;;;;;;21.36;100.00;98945.19;4418005;32;20048;-70
2022/06/24 06:45:49;;;;;;;7.28;2.30;;;;;;;21.50;100.00;98947.75;4417574;32;20419;-70
2022/06/24 06:48:15;;;;;;;3.72;1.90;;;;;;;21.32;100.00;98905.88;4417951;32;20038;-71
2022/06/24 06:50:40;;;;;;;7.05;2.40;;;;;;;21.44;100.00;98923.56;4416657;32;20145;-71
2022/06/24 06:53:06;;;;;;;7.75;2.90;;;;;;;21.71;100.00;98942.41;4414738;32;20042;-70
2022/06/24 06:55:32;;;;;;;4.53;1.80;;;;;;;21.50;100.00;98905.88;4417543;32;20409;-70
2022/06/24 06:57:58;;;;;;;11.12;2.00;;;;;;;21.75;100.00;98946.09;4419872;32;20399;-69
2022/06/24 07:00:24;;;;;;;4.57;2.78;;;;;;;21.88;100.00;98948.97;4418597;32;20091;-70
2022/06/24 07:02:50;;;;;;;2.33;2.12;;;;;;;21.68;100.00;98912.91;4415419;32;20042;-71
2022/06/24 07:05:16;;;;;;;11.27;3.45;;;;;;;21.95;100.00;98949.28;4417038;32;20034;-68
2022/06/24 07:07:42;;;;;;;2.75;2.33;;;;;;;21.95;100.00;98938.31;4416467;32;20444;-69
2022/06/24 07:10:08;;;;;;;3.37;2.05;;;;;;;21.95;100.00;98943.78;4417916;32;20065;-69
2022/06/24 07:12:33;;;;;;;5.25;2.20;;;;;;;21.92;100.00;98937.03;4420517;32;20046;-69
2022/06/24 07:14:59;;;;;;;8.50;2.08;;;;;;;21.76;100.00;98903.06;4415832;32;20038;-71
2022/06/24 07:17:25;;;;;;;1.90;1.80;;;;;;;21.94;100.00;98933.97;4414551;32;20437;-70
2022/06/24 07:19:51;;;;;;;4.93;2.05;;;;;;;21.82;100.00;98901.75;4417383;32;20105;-69
2022/06/24 07:22:17;;;;;;;4.68;1.40;;;;;;;22.05;100.00;98932.47;4425521;32;20073;-69
2022/06/24 07:24:44;;;;;;;3.55;1.95;;;;;;;22.25;100.00;98930.12;4426670;32;20058;-69
2022/06/24 07:27:11;;;;;;;3.00;2.15;;;;;;;21.96;100.00;98901.56;4415333;32;20113;-72
2022/06/24 07:29:38;;;;;;;4.37;2.12;;;;;;;22.24;100.00;98920.28;4415185;32;20089;-73
2022/06/24 07:32:05;;;;;;;6.57;1.90;;;;;;;22.40;100.00;98937.84;4416391;32;20056;-73
2022/06/24 07:34:32;;;;;;;5.43;2.40;;;;;;;22.39;100.00;98936.22;4412444;32;20057;-73
2022/06/24 07:37:00;;;;;;;7.95;2.40;;;;;;;22.14;100.00;98926.94;4409070;32;20073;-72
2022/06/24 07:39:27;;;;;;;2.10;1.90;;;;;;;22.20;100.00;98895.47;4412446;32;20054;-72
2022/06/24 07:41:53;;;;;;;8.02;2.10;;;;;;;21.85;100.00;98845.50;4412270;32;20062;-73
2022/06/24 07:44:20;;;;;;;4.47;1.83;;;;;;;22.24;100.00;98906.56;4415149;32;20095;-72
2022/06/24 07:46:47;;;;;;;5.20;2.50;;;;;;;22.63;100.00;98935.59;4415041;32;20070;-74
2022/06/24 07:49:13;;;;;;;9.35;2.30;;;;;;;22.66;100.00;98931.41;4415491;32;20083;-73
2022/06/24 07:51:39;;;;;;;6.68;2.00;;;;;;;22.66;100.00;98934.13;4416372;32;20397;-73
2022/06/24 07:54:07;;;;;;;4.03;1.98;;;;;;;22.72;100.00;98929.25;4417242;32;20065;-73
2022/06/24 07:59:26;;;;;;;6.80;3.17;;;;;;;22.78;100.00;98922.44;4414621;32;20054;-72
2022/06/24 08:02:00;;;;;;;3.97;1.92;;;;;;;22.71;100.00;98914.72;4411408;32;20441;-72
2022/06/24 08:04:28;;;;;;;2.20;2.10;;;;;;;22.59;100.00;98898.19;4418225;32;20054;-72
2022/06/24 08:06:55;;;;;;;2.15;2.05;;;;;;;22.90;100.00;98927.19;4412760;32;20117;-73
2022/06/24 08:09:23;;;;;;;6.05;1.92;;;;;;;22.96;100.00;98920.34;4408892;32;20106;-73
2022/06/24 08:11:50;;;;;;;6.65;2.70;;;;;;;22.79;100.00;98891.91;4423099;32;20098;-73
2022/06/24 08:14:16;;;;;;;7.78;1.70;;;;;;;23.13;100.00;98920.25;4412434;32;20038;-74
2022/06/24 08:16:43;;;;;;;5.20;2.33;;;;;;;22.98;100.00;98879.66;4416201;32;20142;-73
2022/06/24 08:19:10;;;;;;;5.65;2.33;;;;;;;22.94;100.00;98917.16;4413201;32;20039;-72
2022/06/24 08:21:36;;;;;;;4.97;2.00;;;;;;;22.86;100.00;98910.56;4416065;32;20103;-74
2022/06/24 08:24:02;;;;;;;1.65;1.65;;;;;;;22.94;100.00;98906.16;4416110;32;20093;-74
2022/06/24 08:26:28;;;;;;;4.97;2.50;;;;;;;22.82;100.00;98909.66;4415932;32;20057;-73
2022/06/24 08:28:54;;;;;;;3.37;1.58;;;;;;;22.89;100.00;98876.19;4416026;32;20121;-73
2022/06/24 08:31:20;;;;;;;4.32;1.70;;;;;;;23.20;100.00;98904.03;4415396;32;20389;-72
2022/06/24 08:33:47;;;;;;;2.92;1.60;;;;;;;23.11;92.77;98903.31;4413087;32;20346;-73
2022/06/24 08:36:12;;;;;;;2.60;1.83;;;;;;;23.28;96.24;98898.78;4425219;32;20189;-75
2022/06/24 08:38:38;;;;;;;1.75;1.65;;;;;;;23.13;96.13;98854.34;4426521;32;20109;-74
2022/06/24 08:41:04;;;;;;;2.87;2.00;;;;;;;23.23;98.37;98885.28;4415447;32;20089;-73
2022/06/24 08:43:32;;;;;;;6.10;2.00;;;;;;;23.30;95.30;98880.03;4413613;32;20310;-72
2022/06/24 08:45:58;;;;;;;8.90;2.12;;;;;;;23.11;95.09;98856.63;4415187;32;20101;-71
2022/06/24 08:48:31;;;;;;;5.37;1.73;;;;;;;23.00;95.96;98833.44;4415074;32;20054;-73
2022/06/24 08:50:59;;;;;;;7.32;1.67;;;;;;;23.40;96.10;98879.59;4415359;32;20281;-73
2022/06/24 08:53:28;;;;;;;1.95;1.77;;;;;;;23.45;94.90;98884.88;4414078;32;20068;-73
2022/06/24 08:55:54;;;;;;;3.50;2.40;;;;;;;23.56;96.93;98874.28;4414297;32;20446;-72
2022/06/24 08:58:20;;;;;;;2.45;1.70;;;;;;;23.32;100.00;98839.31;4414800;32;20424;-73
2022/06/24 09:00:47;;;;;;;9.18;1.80;;;;;;;23.66;94.79;98870.28;4415275;32;20123;-72
2022/06/24 09:03:13;;;;;;;2.35;1.80;;;;;;;23.50;86.47;98878.38;4415601;32;20066;-74
2022/06/24 09:05:40;;;;;;;7.00;2.25;;;;;;;23.64;91.21;98867.06;4415038;32;20156;-73
2022/06/24 09:08:08;;;;;;;2.10;1.85;;;;;;;23.60;87.79;98866.97;4411796;32;20086;-73
2022/06/24 09:10:36;;;;;;;8.38;1.65;;;;;;;23.54;88.84;98841.63;4413782;32;20101;-72
2022/06/24 09:13:03;;;;;;;2.00;1.90;;;;;;;23.45;88.31;98851.91;4415143;32;20037;-70
2022/06/24 09:15:29;;;;;;;5.97;1.52;;;;;;;23.64;89.35;98856.88;4429296;32;20068;-71
2022/06/24 09:17:55;;;;;;;3.00;1.52;;;;;;;23.79;90.61;98841.69;4416466;32;20031;-72
2022/06/24 09:20:23;;;;;;;4.40;1.77;;;;;;;23.74;84.43;98852.88;4424779;32;20121;-71
2022/06/24 09:22:50;;;;;;;1.55;1.52;;;;;;;23.71;89.33;98850.81;4431496;32;20046;-71
2022/06/24 09:25:17;;;;;;;11.35;1.58;;;;;;;23.79;89.98;98844.44;4428481;32;20102;-74
2022/06/24 09:27:45;;;;;;;9.45;1.98;;;;;;;23.95;90.19;98850.09;4415300;32;20333;-71
2022/06/24 09:30:18;;;;;;;2.55;2.35;;;;;;;24.13;89.49;98845.16;4414054;32;20061;-71
2022/06/24 09:32:51;;;;;;;4.00;1.67;;;;;;;24.22;90.43;98850.50;4415295;32;20087;-71
2022/06/24 09:35:18;;;;;;;1.87;1.77;;;;;;;24.29;91.87;98837.78;4412165;32;20156;-70
2022/06/24 09:37:46;;;;;;;1.83;1.67;;;;;;;24.30;90.96;98833.91;4396473;32;20069;-73
2022/06/24 09:40:18;;;;;;;1.85;1.75;;;;;;;24.44;94.43;98838.22;4391649;32;20057;-72
2022/06/24 09:42:53;;;;;;;2.10;1.85;;;;;;;24.42;91.15;98832.28;4390487;32;20072;-71
2022/06/24 09:45:19;;;;;;;7.18;2.78;;;;;;;24.23;89.77;98811.66;4399262;32;20115;-71
2022/06/24 09:47:49;;;;;;;8.57;2.78;;;;;;;24.29;91.77;98826.78;4385981;32;20051;-71
2022/06/24 09:50:17;;;;;;;4.62;2.00;;;;;;;24.17;89.62;98806.75;4396586;32;20227;-71
2022/06/24 09:52:43;;;;;;;11.52;1.80;;;;;;;24.34;90.14;98806.47;4398988;32;20058;-71
2022/06/24 09:55:10;;;;;;;1.90;1.80;;;;;;;24.21;81.51;98827.72;4398795;32;20096;-70
2022/06/24 09:57:37;;;;;;;2.47;2.25;;;;;;;24.22;85.19;98799.06;4399094;32;20050;-73
2022/06/24 10:02:50;;;;;;;6.18;1.67;;;;;;;24.10;80.31;98791.63;4400416;32;20112;-70
2022/06/24 10:05:18;;;;;;;1.83;1.73;;;;;;;24.41;83.30;98801.22;4400810;32;20042;-72
2022/06/24 10:07:48;;;;;;;2.05;1.62;;;;;;;24.70;85.69;98824.09;4397551;32;20067;-71
2022/06/24 10:10:16;;;;;;;3.83;2.22;;;;;;;24.65;80.72;98816.88;4385492;32;20466;-70
2022/06/24 10:12:52;;;;;;;6.55;2.28;;;;;;;24.58;82.28;98789.13;4385482;32;20125;-70
2022/06/24 10:15:21;;;;;;;3.15;1.40;;;;;;;24.74;80.03;98818.69;4386501;32;20047;-72
2022/06/24 10:17:47;;;;;;;3.08;1.50;;;;;;;24.96;82.42;98820.88;4388068;32;20051;-68
2022/06/24 10:20:15;;;;;;;9.68;1.70;;;;;;;25.01;83.61;98823.38;4395654;32;20080;-71
2022/06/24 10:22:41;;;;;;;5.07;1.60;;;;;;;24.88;81.69;98823.81;4388144;32;20039;-70
2022/06/24 10:25:07;;;;;;;8.00;2.00;;;;;;;24.78;78.36;98819.56;4401340;32;20104;-69
2022/06/24 10:27:56;;;;;;;7.15;1.77;;;;;;;25.18;79.61;98815.97;4400805;32;20084;-70
2022/06/24 10:30:47;;;;;;;4.00;1.60;;;;;;;25.13;76.20;98824.47;4392094;32;20038;-70
2022/06/24 10:33:13;;;;;;;1.70;1.60;;;;;;;25.13;84.73;98781.22;4403296;32;20050;-69
2022/06/24 10:36:04;;;;;;;2.35;2.15;;;;;;;25.24;83.16;98770.50;4403602;32;20462;-70
2022/06/24 10:38:48;;;;;;;1.70;1.70;;;;;;;25.24;77.15;98808.22;4416491;32;20451;-72
2022/06/24 10:41:15;;;;;;;3.67;1.85;;;;;;;25.16;79.30;98810.81;4417314;32;20068;-70
2022/06/24 10:43:43;;;;;;;5.18;1.85;;;;;;;25.40;74.25;98811.03;4416687;32;20039;-70
2022/06/24 10:46:11;;;;;;;1.92;1.83;;;;;;;25.50;76.25;98805.81;4417349;32;20039;-73
2022/06/24 10:48:43;;;;;;;3.33;1.62;;;;;;;25.20;76.59;98813.66;4415033;32;20061;-71
2022/06/24 10:51:13;;;;;;;;;;;;;;;25.73;85.63;98797.69;4417889;32;20035;-72
2022/06/24 10:54:06;;;;;;;2.78;2.10;;;;;;;25.87;79.86;98810.25;4417600;32;19956;-69
2022/06/24 10:56:42;;;;;;;1.80;1.70;;;;;;;26.04;80.41;98807.13;4412931;32;20041;-71
2022/06/24 10:59:09;;;;;;;3.00;1.70;;;;;;;26.08;70.01;98796.97;4401447;32;20100;-70
2022/06/24 11:01:39;;;;;;;3.12;2.28;;;;;;;25.82;67.28;98766.41;4414623;32;20039;-70
2022/06/24 11:04:07;;;;;;;2.03;1.90;;;;;;;26.01;70.84;98790.53;4429956;32;20039;-71
2022/06/24 11:06:33;;;;;;;10.68;2.12;;;;;;;26.70;71.39;98798.34;4415131;32;20461;-70
2022/06/24 11:09:07;;;;;;;4.25;2.83;;;;;;;26.73;67.29;98765.25;4418796;32;20041;-72
2022/06/24 11:11:34;;;;;;;5.97;2.00;;;;;;;27.09;65.16;98754.06;4416666;32;20034;-72
2022/06/24 11:14:24;;;;;;;1.80;1.73;;;;;;;27.11;64.81;98752.56;4411778;32;20058;-69
2022/06/24 11:16:50;;;;;;;3.47;2.20;;;;;;;27.32;61.75;98790.06;4414493;32;20054;-72
2022/06/24 11:19:17;;;;;;;8.27;2.28;;;;;;;26.59;62.66;98782.31;4416635;32;20056;-70
2022/06/24 11:21:50;;;;;;;11.07;2.12;;;;;;;26.30;64.84;98753.31;4416515;32;20058;-71
2022/06/24 11:24:20;;;;;;;3.40;2.00;;;;;;;26.72;74.56;98780.22;4415797;32;20127;-69
2022/06/24 11:27:06;;;;;;;1.60;1.50;;;;;;;27.23;70.07;98770.12;4417051;32;20030;-70
2022/06/24 11:29:51;;;;;;;3.25;1.70;;;;;;;27.36;67.15;98750.25;4417270;32;20078;-71
2022/06/24 11:32:18;;;;;;;1.83;1.73;;;;;;;28.17;60.94;98784.31;4416377;32;20108;-71
2022/06/24 11:34:45;;;;;;;1.70;1.58;;;;;;;28.29;64.88;98782.47;4417424;32;20079;-71
2022/06/24 11:37:12;;;;;;;1.80;1.70;;;;;;;28.74;66.19;98769.66;4412921;32;20107;-70
2022/06/24 11:39:38;;;;;;;1.95;1.70;;;;;;;28.85;64.67;98766.97;4414051;32;20128;-70
2022/06/24 11:42:04;;;;;;;5.15;1.95;;;;;;;29.36;58.80;98769.13;4415381;32;20042;-70
2022/06/24 11:44:35;;;;;;;6.78;1.75;;;;;;;27.93;53.67;98740.47;4416521;32;20043;-70